sensor_id;sensor_type;location;lat;lon;timestamp;P1;durP1;ratioP1;P2;durP2;ratioP2
30539;SDS011;17321;46.312;4.776;2022-12-01T00:01:41;33.00;;;17.15;;
30539;SDS011;17321;46.312;4.776;2022-12-01T00:04:07;29.65;;;17.25;;
30539;SDS011;17321;46.312;4.776;2022-12-01T00:06:33;28.35;;;16.05;;
30539;SDS011;17321;46.312;4.776;2022-12-01T00:08:59;27.85;;;15.60;;
30539;SDS011;17321;46.312;4.776;2022-12-01T00:11:44;24.95;;;15.40;;
30539;SDS011;17321;46.312;4.776;2022-12-01T00:14:10;26.00;;;15.13;;
30539;SDS011;17321;46.312;4.776;2022-12-01T00:16:36;24.25;;;14.35;;
30539;SDS011;17321;46.312;4.776;2022-12-01T00:19:04;25.90;;;15.40;;
30539;SDS011;17321;46.312;4.776;2022-12-01T00:21:30;26.25;;;15.68;;
30539;SDS011;17321;46.312;4.776;2022-12-01T00:23:56;26.23;;;15.05;;
30539;SDS011;17321;46.312;4.776;2022-12-01T00:26:23;25.20;;;14.20;;
30539;SDS011;17321;46.312;4.776;2022-12-01T00:28:50;24.90;;;14.45;;
30539;SDS011;17321;46.312;4.776;2022-12-01T00:31:17;21.33;;;14.60;;
30539;SDS011;17321;46.312;4.776;2022-12-01T00:33:43;25.02;;;14.55;;
30539;SDS011;17321;46.312;4.776;2022-12-01T00:36:09;22.02;;;14.48;;
30539;SDS011;17321;46.312;4.776;2022-12-01T00:38:35;18.30;;;12.80;;
30539;SDS011;17321;46.312;4.776;2022-12-01T00:41:02;26.27;;;13.80;;
30539;SDS011;17321;46.312;4.776;2022-12-01T00:43:28;18.20;;;12.90;;
30539;SDS011;17321;46.312;4.776;2022-12-01T00:45:54;21.80;;;14.02;;
30539;SDS011;17321;46.312;4.776;2022-12-01T00:48:20;20.08;;;12.00;;
30539;SDS011;17321;46.312;4.776;2022-12-01T00:50:47;21.30;;;13.02;;
30539;SDS011;17321;46.312;4.776;2022-12-01T00:53:15;20.35;;;13.65;;
30539;SDS011;17321;46.312;4.776;2022-12-01T00:55:41;23.10;;;13.48;;
30539;SDS011;17321;46.312;4.776;2022-12-01T00:58:07;20.67;;;13.73;;
30539;SDS011;17321;46.312;4.776;2022-12-01T01:00:33;20.15;;;14.00;;
30539;SDS011;17321;46.312;4.776;2022-12-01T01:03:03;19.65;;;12.75;;
30539;SDS011;17321;46.312;4.776;2022-12-01T01:05:29;20.58;;;13.45;;
30539;SDS011;17321;46.312;4.776;2022-12-01T01:07:55;20.75;;;13.20;;
30539;SDS011;17321;46.312;4.776;2022-12-01T01:10:21;20.23;;;13.27;;
30539;SDS011;17321;46.312;4.776;2022-12-01T01:12:47;22.38;;;13.38;;
30539;SDS011;17321;46.312;4.776;2022-12-01T01:15:13;18.48;;;13.32;;
30539;SDS011;17321;46.312;4.776;2022-12-01T01:17:40;22.23;;;12.93;;
30539;SDS011;17321;46.312;4.776;2022-12-01T01:20:06;23.13;;;12.55;;
30539;SDS011;17321;46.312;4.776;2022-12-01T01:22:33;21.00;;;14.32;;
30539;SDS011;17321;46.312;4.776;2022-12-01T01:24:59;18.00;;;12.48;;
30539;SDS011;17321;46.312;4.776;2022-12-01T01:27:25;20.42;;;14.18;;
30539;SDS011;17321;46.312;4.776;2022-12-01T01:29:51;21.20;;;13.88;;
30539;SDS011;17321;46.312;4.776;2022-12-01T01:32:17;18.42;;;13.05;;
30539;SDS011;17321;46.312;4.776;2022-12-01T01:34:44;20.35;;;14.23;;
30539;SDS011;17321;46.312;4.776;2022-12-01T01:37:10;20.35;;;13.05;;
30539;SDS011;17321;46.312;4.776;2022-12-01T01:39:36;23.60;;;14.20;;
30539;SDS011;17321;46.312;4.776;2022-12-01T01:42:02;18.67;;;12.73;;
30539;SDS011;17321;46.312;4.776;2022-12-01T01:47:14;19.15;;;13.30;;
30539;SDS011;17321;46.312;4.776;2022-12-01T01:49:42;19.95;;;12.82;;
30539;SDS011;17321;46.312;4.776;2022-12-01T01:52:08;22.52;;;12.45;;
30539;SDS011;17321;46.312;4.776;2022-12-01T01:54:36;20.45;;;13.20;;
30539;SDS011;17321;46.312;4.776;2022-12-01T01:59:32;19.10;;;12.43;;
30539;SDS011;17321;46.312;4.776;2022-12-01T02:02:04;18.88;;;12.50;;
30539;SDS011;17321;46.312;4.776;2022-12-01T02:04:31;20.15;;;12.40;;
30539;SDS011;17321;46.312;4.776;2022-12-01T02:06:59;18.75;;;12.50;;
30539;SDS011;17321;46.312;4.776;2022-12-01T02:09:25;18.48;;;12.00;;
30539;SDS011;17321;46.312;4.776;2022-12-01T02:12:01;20.27;;;12.98;;
30539;SDS011;17321;46.312;4.776;2022-12-01T02:19:44;20.70;;;12.15;;
30539;SDS011;17321;46.312;4.776;2022-12-01T02:22:34;15.35;;;10.70;;
30539;SDS011;17321;46.312;4.776;2022-12-01T02:35:22;17.92;;;11.32;;
30539;SDS011;17321;46.312;4.776;2022-12-01T02:40:24;18.42;;;11.18;;
30539;SDS011;17321;46.312;4.776;2022-12-01T02:42:56;17.65;;;11.40;;
30539;SDS011;17321;46.312;4.776;2022-12-01T02:45:39;15.13;;;10.85;;
30539;SDS011;17321;46.312;4.776;2022-12-01T02:48:08;16.05;;;10.75;;
30539;SDS011;17321;46.312;4.776;2022-12-01T02:50:35;20.55;;;10.75;;
30539;SDS011;17321;46.312;4.776;2022-12-01T02:53:03;18.33;;;11.10;;
30539;SDS011;17321;46.312;4.776;2022-12-01T02:55:30;15.10;;;10.70;;
30539;SDS011;17321;46.312;4.776;2022-12-01T02:57:56;19.52;;;11.90;;
30539;SDS011;17321;46.312;4.776;2022-12-01T03:00:22;15.02;;;10.32;;
30539;SDS011;17321;46.312;4.776;2022-12-01T03:10:55;16.67;;;11.07;;
30539;SDS011;17321;46.312;4.776;2022-12-01T03:16:02;15.35;;;11.35;;
30539;SDS011;17321;46.312;4.776;2022-12-01T03:18:38;20.23;;;10.57;;
30539;SDS011;17321;46.312;4.776;2022-12-01T03:23:34;17.80;;;11.30;;
30539;SDS011;17321;46.312;4.776;2022-12-01T03:26:02;15.98;;;11.73;;
30539;SDS011;17321;46.312;4.776;2022-12-01T03:28:32;14.98;;;10.52;;
30539;SDS011;17321;46.312;4.776;2022-12-01T03:31:01;15.63;;;10.90;;
30539;SDS011;17321;46.312;4.776;2022-12-01T03:33:39;15.35;;;10.75;;
30539;SDS011;17321;46.312;4.776;2022-12-01T03:36:31;15.32;;;10.40;;
30539;SDS011;17321;46.312;4.776;2022-12-01T03:38:56;16.67;;;10.30;;
30539;SDS011;17321;46.312;4.776;2022-12-01T03:41:28;15.13;;;10.77;;
30539;SDS011;17321;46.312;4.776;2022-12-01T03:44:02;15.90;;;11.27;;
30539;SDS011;17321;46.312;4.776;2022-12-01T03:56:23;18.25;;;11.25;;
30539;SDS011;17321;46.312;4.776;2022-12-01T03:58:51;16.60;;;10.53;;
30539;SDS011;17321;46.312;4.776;2022-12-01T04:01:19;15.50;;;11.50;;
30539;SDS011;17321;46.312;4.776;2022-12-01T04:03:46;18.48;;;11.57;;
30539;SDS011;17321;46.312;4.776;2022-12-01T04:06:13;22.42;;;12.30;;
30539;SDS011;17321;46.312;4.776;2022-12-01T04:08:39;16.58;;;11.57;;
30539;SDS011;17321;46.312;4.776;2022-12-01T04:11:05;16.17;;;11.18;;
30539;SDS011;17321;46.312;4.776;2022-12-01T04:13:50;18.60;;;10.68;;
30539;SDS011;17321;46.312;4.776;2022-12-01T04:16:16;14.68;;;10.13;;
30539;SDS011;17321;46.312;4.776;2022-12-01T04:18:42;15.82;;;10.30;;
30539;SDS011;17321;46.312;4.776;2022-12-01T04:21:08;16.27;;;10.50;;
30539;SDS011;17321;46.312;4.776;2022-12-01T04:23:34;20.60;;;10.90;;
30539;SDS011;17321;46.312;4.776;2022-12-01T04:26:19;15.55;;;10.20;;
30539;SDS011;17321;46.312;4.776;2022-12-01T04:28:45;15.13;;;10.18;;
30539;SDS011;17321;46.312;4.776;2022-12-01T04:31:11;14.88;;;10.23;;
30539;SDS011;17321;46.312;4.776;2022-12-01T04:33:37;17.23;;;11.27;;
30539;SDS011;17321;46.312;4.776;2022-12-01T04:36:03;18.17;;;11.00;;
30539;SDS011;17321;46.312;4.776;2022-12-01T04:38:30;16.92;;;11.27;;
30539;SDS011;17321;46.312;4.776;2022-12-01T04:40:56;15.88;;;9.85;;
30539;SDS011;17321;46.312;4.776;2022-12-01T04:43:22;17.58;;;11.48;;
30539;SDS011;17321;46.312;4.776;2022-12-01T04:45:48;15.98;;;11.15;;
30539;SDS011;17321;46.312;4.776;2022-12-01T04:48:14;16.48;;;11.05;;
30539;SDS011;17321;46.312;4.776;2022-12-01T04:50:40;16.02;;;11.20;;
30539;SDS011;17321;46.312;4.776;2022-12-01T04:53:06;17.90;;;10.27;;
30539;SDS011;17321;46.312;4.776;2022-12-01T04:55:35;17.33;;;11.18;;
30539;SDS011;17321;46.312;4.776;2022-12-01T04:58:03;16.75;;;11.40;;
30539;SDS011;17321;46.312;4.776;2022-12-01T05:00:29;17.42;;;11.60;;
30539;SDS011;17321;46.312;4.776;2022-12-01T05:02:55;20.90;;;11.82;;
30539;SDS011;17321;46.312;4.776;2022-12-01T05:05:21;18.02;;;11.45;;
30539;SDS011;17321;46.312;4.776;2022-12-01T05:07:47;15.98;;;10.85;;
30539;SDS011;17321;46.312;4.776;2022-12-01T05:10:13;16.10;;;10.82;;
30539;SDS011;17321;46.312;4.776;2022-12-01T05:12:43;17.10;;;11.13;;
30539;SDS011;17321;46.312;4.776;2022-12-01T05:15:10;15.77;;;10.98;;
30539;SDS011;17321;46.312;4.776;2022-12-01T05:17:36;16.20;;;11.52;;
30539;SDS011;17321;46.312;4.776;2022-12-01T05:20:03;15.40;;;11.10;;
30539;SDS011;17321;46.312;4.776;2022-12-01T05:22:48;15.85;;;10.85;;
30539;SDS011;17321;46.312;4.776;2022-12-01T05:25:16;17.27;;;11.88;;
30539;SDS011;17321;46.312;4.776;2022-12-01T05:27:42;15.57;;;10.48;;
30539;SDS011;17321;46.312;4.776;2022-12-01T05:30:09;16.05;;;11.18;;
30539;SDS011;17321;46.312;4.776;2022-12-01T05:32:35;16.55;;;10.80;;
30539;SDS011;17321;46.312;4.776;2022-12-01T05:35:01;15.63;;;10.57;;
30539;SDS011;17321;46.312;4.776;2022-12-01T05:37:27;17.85;;;12.18;;
30539;SDS011;17321;46.312;4.776;2022-12-01T05:39:58;18.98;;;10.85;;
30539;SDS011;17321;46.312;4.776;2022-12-01T05:42:25;17.02;;;11.68;;
30539;SDS011;17321;46.312;4.776;2022-12-01T05:44:51;16.60;;;11.40;;
30539;SDS011;17321;46.312;4.776;2022-12-01T05:47:17;19.00;;;11.90;;
30539;SDS011;17321;46.312;4.776;2022-12-01T05:49:43;17.63;;;10.82;;
30539;SDS011;17321;46.312;4.776;2022-12-01T05:52:09;19.08;;;11.68;;
30539;SDS011;17321;46.312;4.776;2022-12-01T05:54:35;18.02;;;11.65;;
30539;SDS011;17321;46.312;4.776;2022-12-01T05:57:01;13.68;;;10.10;;
30539;SDS011;17321;46.312;4.776;2022-12-01T05:59:27;15.90;;;11.15;;
30539;SDS011;17321;46.312;4.776;2022-12-01T06:01:54;17.27;;;11.55;;
30539;SDS011;17321;46.312;4.776;2022-12-01T06:04:20;22.08;;;11.40;;
30539;SDS011;17321;46.312;4.776;2022-12-01T06:06:46;17.65;;;11.20;;
30539;SDS011;17321;46.312;4.776;2022-12-01T06:09:12;15.23;;;10.32;;
30539;SDS011;17321;46.312;4.776;2022-12-01T06:11:38;16.20;;;11.80;;
30539;SDS011;17321;46.312;4.776;2022-12-01T06:14:04;16.60;;;11.73;;
30539;SDS011;17321;46.312;4.776;2022-12-01T06:16:30;17.65;;;11.45;;
30539;SDS011;17321;46.312;4.776;2022-12-01T06:18:56;18.42;;;12.63;;
30539;SDS011;17321;46.312;4.776;2022-12-01T06:21:23;14.63;;;11.15;;
30539;SDS011;17321;46.312;4.776;2022-12-01T06:23:49;18.55;;;11.65;;
30539;SDS011;17321;46.312;4.776;2022-12-01T06:26:15;16.08;;;10.77;;
30539;SDS011;17321;46.312;4.776;2022-12-01T06:28:41;16.75;;;11.05;;
30539;SDS011;17321;46.312;4.776;2022-12-01T06:31:07;16.48;;;11.32;;
30539;SDS011;17321;46.312;4.776;2022-12-01T06:33:33;21.02;;;12.57;;
30539;SDS011;17321;46.312;4.776;2022-12-01T06:36:00;19.63;;;12.68;;
30539;SDS011;17321;46.312;4.776;2022-12-01T06:38:29;22.05;;;12.38;;
30539;SDS011;17321;46.312;4.776;2022-12-01T06:40:55;23.50;;;13.13;;
30539;SDS011;17321;46.312;4.776;2022-12-01T06:43:21;16.27;;;12.40;;
30539;SDS011;17321;46.312;4.776;2022-12-01T06:45:47;21.13;;;13.25;;
30539;SDS011;17321;46.312;4.776;2022-12-01T06:48:13;21.67;;;14.27;;
30539;SDS011;17321;46.312;4.776;2022-12-01T06:50:39;19.75;;;13.20;;
30539;SDS011;17321;46.312;4.776;2022-12-01T06:53:05;18.95;;;12.95;;
30539;SDS011;17321;46.312;4.776;2022-12-01T06:55:31;19.42;;;13.00;;
30539;SDS011;17321;46.312;4.776;2022-12-01T06:57:58;18.50;;;13.10;;
30539;SDS011;17321;46.312;4.776;2022-12-01T07:00:25;20.27;;;13.05;;
30539;SDS011;17321;46.312;4.776;2022-12-01T07:02:51;19.27;;;12.13;;
30539;SDS011;17321;46.312;4.776;2022-12-01T07:05:17;23.80;;;13.40;;
30539;SDS011;17321;46.312;4.776;2022-12-01T07:07:43;21.73;;;13.98;;
30539;SDS011;17321;46.312;4.776;2022-12-01T07:10:09;25.17;;;16.73;;
30539;SDS011;17321;46.312;4.776;2022-12-01T07:12:36;30.35;;;19.83;;
30539;SDS011;17321;46.312;4.776;2022-12-01T07:15:03;24.08;;;16.40;;
30539;SDS011;17321;46.312;4.776;2022-12-01T07:17:29;38.20;;;19.63;;
30539;SDS011;17321;46.312;4.776;2022-12-01T07:19:55;27.00;;;17.67;;
30539;SDS011;17321;46.312;4.776;2022-12-01T07:22:22;26.95;;;16.77;;
30539;SDS011;17321;46.312;4.776;2022-12-01T07:24:48;26.80;;;14.82;;
30539;SDS011;17321;46.312;4.776;2022-12-01T07:27:14;22.42;;;12.98;;
30539;SDS011;17321;46.312;4.776;2022-12-01T07:29:40;20.90;;;13.88;;
30539;SDS011;17321;46.312;4.776;2022-12-01T07:32:06;21.70;;;13.50;;
30539;SDS011;17321;46.312;4.776;2022-12-01T07:34:32;19.83;;;12.90;;
30539;SDS011;17321;46.312;4.776;2022-12-01T07:36:58;19.50;;;12.52;;
30539;SDS011;17321;46.312;4.776;2022-12-01T07:39:24;20.30;;;12.57;;
30539;SDS011;17321;46.312;4.776;2022-12-01T07:41:51;22.77;;;14.55;;
30539;SDS011;17321;46.312;4.776;2022-12-01T07:44:17;20.77;;;14.45;;
30539;SDS011;17321;46.312;4.776;2022-12-01T07:46:43;21.77;;;14.80;;
30539;SDS011;17321;46.312;4.776;2022-12-01T07:49:09;24.63;;;15.65;;
30539;SDS011;17321;46.312;4.776;2022-12-01T07:51:38;25.85;;;15.80;;
30539;SDS011;17321;46.312;4.776;2022-12-01T07:54:05;28.33;;;16.67;;
30539;SDS011;17321;46.312;4.776;2022-12-01T07:56:31;28.30;;;16.13;;
30539;SDS011;17321;46.312;4.776;2022-12-01T07:58:58;24.88;;;15.77;;
30539;SDS011;17321;46.312;4.776;2022-12-01T08:01:24;19.50;;;14.38;;
30539;SDS011;17321;46.312;4.776;2022-12-01T08:03:51;23.88;;;15.68;;
30539;SDS011;17321;46.312;4.776;2022-12-01T08:06:18;25.30;;;15.75;;
30539;SDS011;17321;46.312;4.776;2022-12-01T08:08:44;23.20;;;15.85;;
30539;SDS011;17321;46.312;4.776;2022-12-01T08:11:12;21.40;;;15.30;;
30539;SDS011;17321;46.312;4.776;2022-12-01T08:13:39;21.20;;;14.98;;
30539;SDS011;17321;46.312;4.776;2022-12-01T08:16:06;22.63;;;14.02;;
30539;SDS011;17321;46.312;4.776;2022-12-01T08:18:35;24.80;;;14.55;;
30539;SDS011;17321;46.312;4.776;2022-12-01T08:21:02;23.83;;;15.65;;
30539;SDS011;17321;46.312;4.776;2022-12-01T08:23:28;22.90;;;15.13;;
30539;SDS011;17321;46.312;4.776;2022-12-01T08:25:54;21.08;;;15.05;;
30539;SDS011;17321;46.312;4.776;2022-12-01T08:28:21;24.20;;;15.70;;
30539;SDS011;17321;46.312;4.776;2022-12-01T08:30:48;26.67;;;14.73;;
30539;SDS011;17321;46.312;4.776;2022-12-01T08:33:14;22.65;;;15.38;;
30539;SDS011;17321;46.312;4.776;2022-12-01T08:35:40;19.10;;;14.32;;
30539;SDS011;17321;46.312;4.776;2022-12-01T08:38:06;22.42;;;14.68;;
30539;SDS011;17321;46.312;4.776;2022-12-01T08:40:32;21.50;;;14.80;;
30539;SDS011;17321;46.312;4.776;2022-12-01T08:42:58;18.63;;;13.95;;
30539;SDS011;17321;46.312;4.776;2022-12-01T08:45:24;23.67;;;14.85;;
30539;SDS011;17321;46.312;4.776;2022-12-01T08:47:51;21.10;;;14.23;;
30539;SDS011;17321;46.312;4.776;2022-12-01T08:50:18;18.98;;;13.85;;
30539;SDS011;17321;46.312;4.776;2022-12-01T08:52:44;22.08;;;13.40;;
30539;SDS011;17321;46.312;4.776;2022-12-01T08:55:10;20.98;;;13.95;;
30539;SDS011;17321;46.312;4.776;2022-12-01T08:57:36;17.38;;;12.48;;
30539;SDS011;17321;46.312;4.776;2022-12-01T09:00:03;18.30;;;12.82;;
30539;SDS011;17321;46.312;4.776;2022-12-01T09:02:29;18.58;;;12.45;;
30539;SDS011;17321;46.312;4.776;2022-12-01T09:04:55;20.38;;;13.90;;
30539;SDS011;17321;46.312;4.776;2022-12-01T09:07:21;18.83;;;13.60;;
30539;SDS011;17321;46.312;4.776;2022-12-01T09:09:47;20.25;;;13.75;;
30539;SDS011;17321;46.312;4.776;2022-12-01T09:12:14;20.60;;;13.20;;
30539;SDS011;17321;46.312;4.776;2022-12-01T09:14:42;18.75;;;11.63;;
30539;SDS011;17321;46.312;4.776;2022-12-01T09:17:14;21.85;;;13.60;;
30539;SDS011;17321;46.312;4.776;2022-12-01T09:19:40;19.17;;;12.88;;
30539;SDS011;17321;46.312;4.776;2022-12-01T09:22:06;16.52;;;12.60;;
30539;SDS011;17321;46.312;4.776;2022-12-01T09:24:33;18.55;;;12.43;;
30539;SDS011;17321;46.312;4.776;2022-12-01T09:26:59;20.33;;;13.48;;
30539;SDS011;17321;46.312;4.776;2022-12-01T09:29:25;19.83;;;13.23;;
30539;SDS011;17321;46.312;4.776;2022-12-01T09:31:54;20.98;;;13.57;;
30539;SDS011;17321;46.312;4.776;2022-12-01T09:34:20;17.63;;;12.23;;
30539;SDS011;17321;46.312;4.776;2022-12-01T09:36:47;15.88;;;12.10;;
30539;SDS011;17321;46.312;4.776;2022-12-01T09:39:14;16.45;;;12.32;;
30539;SDS011;17321;46.312;4.776;2022-12-01T09:46:42;16.10;;;11.20;;
30539;SDS011;17321;46.312;4.776;2022-12-01T09:51:35;19.20;;;11.50;;
30539;SDS011;17321;46.312;4.776;2022-12-01T09:54:01;17.33;;;11.27;;
30539;SDS011;17321;46.312;4.776;2022-12-01T09:56:29;14.85;;;11.23;;
30539;SDS011;17321;46.312;4.776;2022-12-01T09:58:57;17.38;;;11.90;;
30539;SDS011;17321;46.312;4.776;2022-12-01T10:01:26;14.48;;;10.38;;
30539;SDS011;17321;46.312;4.776;2022-12-01T10:03:56;14.27;;;10.48;;
30539;SDS011;17321;46.312;4.776;2022-12-01T10:06:26;17.00;;;11.00;;
30539;SDS011;17321;46.312;4.776;2022-12-01T10:08:59;15.80;;;10.90;;
30539;SDS011;17321;46.312;4.776;2022-12-01T10:11:30;14.68;;;10.60;;
30539;SDS011;17321;46.312;4.776;2022-12-01T10:13:57;15.82;;;10.70;;
30539;SDS011;17321;46.312;4.776;2022-12-01T10:16:25;15.18;;;9.82;;
30539;SDS011;17321;46.312;4.776;2022-12-01T10:19:11;14.05;;;10.65;;
30539;SDS011;17321;46.312;4.776;2022-12-01T10:21:58;14.05;;;9.52;;
30539;SDS011;17321;46.312;4.776;2022-12-01T10:32:18;13.10;;;9.93;;
30539;SDS011;17321;46.312;4.776;2022-12-01T10:34:45;15.40;;;10.27;;
30539;SDS011;17321;46.312;4.776;2022-12-01T10:37:16;12.32;;;8.77;;
30539;SDS011;17321;46.312;4.776;2022-12-01T10:39:43;12.18;;;9.10;;
30539;SDS011;17321;46.312;4.776;2022-12-01T10:44:37;12.25;;;9.55;;
30539;SDS011;17321;46.312;4.776;2022-12-01T10:47:04;11.63;;;8.90;;
30539;SDS011;17321;46.312;4.776;2022-12-01T10:49:39;11.77;;;8.27;;
30539;SDS011;17321;46.312;4.776;2022-12-01T10:52:06;13.00;;;8.80;;
30539;SDS011;17321;46.312;4.776;2022-12-01T10:54:41;12.85;;;8.90;;
30539;SDS011;17321;46.312;4.776;2022-12-01T10:57:14;12.40;;;8.23;;
30539;SDS011;17321;46.312;4.776;2022-12-01T10:59:55;9.85;;;8.20;;
30539;SDS011;17321;46.312;4.776;2022-12-01T11:02:22;11.65;;;8.82;;
30539;SDS011;17321;46.312;4.776;2022-12-01T11:07:21;11.32;;;8.75;;
30539;SDS011;17321;46.312;4.776;2022-12-01T11:10:34;11.90;;;7.40;;
30539;SDS011;17321;46.312;4.776;2022-12-01T11:12:34;9.65;;;7.72;;
30539;SDS011;17321;46.312;4.776;2022-12-01T11:15:00;8.15;;;6.78;;
30539;SDS011;17321;46.312;4.776;2022-12-01T11:17:39;10.75;;;7.43;;
30539;SDS011;17321;46.312;4.776;2022-12-01T11:20:26;9.93;;;7.15;;
30539;SDS011;17321;46.312;4.776;2022-12-01T11:25:34;8.65;;;6.88;;
30539;SDS011;17321;46.312;4.776;2022-12-01T11:28:00;9.57;;;6.78;;
30539;SDS011;17321;46.312;4.776;2022-12-01T11:30:28;11.80;;;7.22;;
30539;SDS011;17321;46.312;4.776;2022-12-01T11:32:56;11.93;;;7.53;;
30539;SDS011;17321;46.312;4.776;2022-12-01T11:35:23;9.85;;;6.85;;
30539;SDS011;17321;46.312;4.776;2022-12-01T11:37:51;11.98;;;7.03;;
30539;SDS011;17321;46.312;4.776;2022-12-01T11:42:48;8.50;;;6.95;;
30539;SDS011;17321;46.312;4.776;2022-12-01T11:48:03;9.02;;;7.15;;
30539;SDS011;17321;46.312;4.776;2022-12-01T11:50:28;11.05;;;7.10;;
30539;SDS011;17321;46.312;4.776;2022-12-01T11:52:54;7.72;;;6.53;;
30539;SDS011;17321;46.312;4.776;2022-12-01T11:55:21;10.23;;;7.10;;
30539;SDS011;17321;46.312;4.776;2022-12-01T11:57:49;7.05;;;5.75;;
30539;SDS011;17321;46.312;4.776;2022-12-01T12:00:16;10.57;;;5.72;;
30539;SDS011;17321;46.312;4.776;2022-12-01T12:05:18;7.90;;;6.43;;
30539;SDS011;17321;46.312;4.776;2022-12-01T12:15:56;8.52;;;5.72;;
30539;SDS011;17321;46.312;4.776;2022-12-01T12:18:30;9.90;;;6.03;;
30539;SDS011;17321;46.312;4.776;2022-12-01T12:26:05;6.72;;;5.07;;
30539;SDS011;17321;46.312;4.776;2022-12-01T12:29:38;9.10;;;5.15;;
30539;SDS011;17321;46.312;4.776;2022-12-01T12:40:08;9.07;;;5.43;;
30539;SDS011;17321;46.312;4.776;2022-12-01T12:47:58;9.68;;;5.90;;
30539;SDS011;17321;46.312;4.776;2022-12-01T12:53:08;6.70;;;5.68;;
30539;SDS011;17321;46.312;4.776;2022-12-01T12:55:37;7.63;;;5.97;;
30539;SDS011;17321;46.312;4.776;2022-12-01T13:00:50;10.55;;;6.50;;
30539;SDS011;17321;46.312;4.776;2022-12-01T13:16:19;7.72;;;5.82;;
30539;SDS011;17321;46.312;4.776;2022-12-01T13:19:01;6.65;;;5.10;;
30539;SDS011;17321;46.312;4.776;2022-12-01T13:21:33;6.93;;;5.35;;
30539;SDS011;17321;46.312;4.776;2022-12-01T13:24:00;9.23;;;5.53;;
30539;SDS011;17321;46.312;4.776;2022-12-01T13:26:27;6.25;;;4.90;;
30539;SDS011;17321;46.312;4.776;2022-12-01T13:28:54;9.00;;;5.45;;
30539;SDS011;17321;46.312;4.776;2022-12-01T13:31:21;6.93;;;5.22;;
30539;SDS011;17321;46.312;4.776;2022-12-01T13:33:54;7.07;;;5.07;;
30539;SDS011;17321;46.312;4.776;2022-12-01T13:36:22;6.55;;;4.80;;
30539;SDS011;17321;46.312;4.776;2022-12-01T13:41:33;7.63;;;5.00;;
30539;SDS011;17321;46.312;4.776;2022-12-01T13:44:07;7.05;;;5.78;;
30539;SDS011;17321;46.312;4.776;2022-12-01T13:54:36;14.85;;;8.30;;
30539;SDS011;17321;46.312;4.776;2022-12-01T13:57:10;8.48;;;6.18;;
30539;SDS011;17321;46.312;4.776;2022-12-01T13:59:40;8.30;;;6.07;;
30539;SDS011;17321;46.312;4.776;2022-12-01T14:02:14;9.65;;;6.07;;
30539;SDS011;17321;46.312;4.776;2022-12-01T14:04:41;23.55;;;11.93;;
30539;SDS011;17321;46.312;4.776;2022-12-01T14:07:26;11.85;;;7.38;;
30539;SDS011;17321;46.312;4.776;2022-12-01T14:09:55;10.57;;;7.47;;
30539;SDS011;17321;46.312;4.776;2022-12-01T14:12:28;18.40;;;8.85;;
30539;SDS011;17321;46.312;4.776;2022-12-01T14:14:59;11.32;;;6.43;;
30539;SDS011;17321;46.312;4.776;2022-12-01T14:17:30;13.50;;;6.93;;
30539;SDS011;17321;46.312;4.776;2022-12-01T14:20:05;8.88;;;6.88;;
30539;SDS011;17321;46.312;4.776;2022-12-01T14:22:43;11.02;;;6.40;;
30539;SDS011;17321;46.312;4.776;2022-12-01T14:27:45;5.30;;;4.70;;
30539;SDS011;17321;46.312;4.776;2022-12-01T14:35:42;7.70;;;5.28;;
30539;SDS011;17321;46.312;4.776;2022-12-01T14:38:08;11.20;;;6.72;;
30539;SDS011;17321;46.312;4.776;2022-12-01T14:40:34;6.60;;;5.45;;
30539;SDS011;17321;46.312;4.776;2022-12-01T14:43:01;7.47;;;5.40;;
30539;SDS011;17321;46.312;4.776;2022-12-01T14:45:49;7.63;;;5.45;;
30539;SDS011;17321;46.312;4.776;2022-12-01T14:48:20;7.10;;;5.25;;
30539;SDS011;17321;46.312;4.776;2022-12-01T14:50:50;10.18;;;5.32;;
30539;SDS011;17321;46.312;4.776;2022-12-01T14:53:30;7.88;;;5.50;;
30539;SDS011;17321;46.312;4.776;2022-12-01T14:56:18;6.63;;;4.65;;
30539;SDS011;17321;46.312;4.776;2022-12-01T15:01:35;9.65;;;6.05;;
30539;SDS011;17321;46.312;4.776;2022-12-01T15:04:03;8.90;;;6.57;;
30539;SDS011;17321;46.312;4.776;2022-12-01T15:06:30;14.23;;;9.82;;
30539;SDS011;17321;46.312;4.776;2022-12-01T15:11:30;32.78;;;22.17;;
30539;SDS011;17321;46.312;4.776;2022-12-01T15:13:57;18.83;;;13.40;;
30539;SDS011;17321;46.312;4.776;2022-12-01T15:16:24;21.58;;;14.90;;
30539;SDS011;17321;46.312;4.776;2022-12-01T15:18:51;8.35;;;5.97;;
30539;SDS011;17321;46.312;4.776;2022-12-01T15:21:20;6.75;;;5.15;;
30539;SDS011;17321;46.312;4.776;2022-12-01T15:26:19;7.88;;;6.15;;
30539;SDS011;17321;46.312;4.776;2022-12-01T15:28:46;8.38;;;6.20;;
30539;SDS011;17321;46.312;4.776;2022-12-01T15:31:12;10.05;;;6.57;;
30539;SDS011;17321;46.312;4.776;2022-12-01T15:33:49;9.63;;;6.82;;
30539;SDS011;17321;46.312;4.776;2022-12-01T15:36:16;8.20;;;6.18;;
30539;SDS011;17321;46.312;4.776;2022-12-01T15:38:43;9.27;;;6.80;;
30539;SDS011;17321;46.312;4.776;2022-12-01T15:41:17;7.95;;;6.15;;
30539;SDS011;17321;46.312;4.776;2022-12-01T15:43:52;10.23;;;7.15;;
30539;SDS011;17321;46.312;4.776;2022-12-01T15:46:18;12.40;;;6.90;;
30539;SDS011;17321;46.312;4.776;2022-12-01T15:49:04;9.65;;;6.55;;
30539;SDS011;17321;46.312;4.776;2022-12-01T15:51:30;9.75;;;6.30;;
30539;SDS011;17321;46.312;4.776;2022-12-01T15:53:57;12.05;;;7.60;;
30539;SDS011;17321;46.312;4.776;2022-12-01T15:56:27;11.77;;;7.50;;
30539;SDS011;17321;46.312;4.776;2022-12-01T15:58:55;9.02;;;6.25;;
30539;SDS011;17321;46.312;4.776;2022-12-01T16:01:23;11.02;;;6.72;;
30539;SDS011;17321;46.312;4.776;2022-12-01T16:04:03;13.82;;;6.22;;
30539;SDS011;17321;46.312;4.776;2022-12-01T16:06:32;9.05;;;6.07;;
30539;SDS011;17321;46.312;4.776;2022-12-01T16:09:17;8.98;;;6.55;;
30539;SDS011;17321;46.312;4.776;2022-12-01T16:14:29;8.95;;;5.97;;
30539;SDS011;17321;46.312;4.776;2022-12-01T16:16:58;8.18;;;6.07;;
30539;SDS011;17321;46.312;4.776;2022-12-01T16:24:30;12.88;;;5.05;;
30539;SDS011;17321;46.312;4.776;2022-12-01T16:27:01;10.43;;;6.05;;
30539;SDS011;17321;46.312;4.776;2022-12-01T16:29:30;9.48;;;6.53;;
30539;SDS011;17321;46.312;4.776;2022-12-01T16:31:57;11.50;;;6.85;;
30539;SDS011;17321;46.312;4.776;2022-12-01T16:34:32;9.55;;;6.82;;
30539;SDS011;17321;46.312;4.776;2022-12-01T16:36:59;8.52;;;5.97;;
30539;SDS011;17321;46.312;4.776;2022-12-01T16:39:25;11.00;;;7.40;;
30539;SDS011;17321;46.312;4.776;2022-12-01T16:41:51;9.10;;;6.43;;
30539;SDS011;17321;46.312;4.776;2022-12-01T16:44:17;10.05;;;6.10;;
30539;SDS011;17321;46.312;4.776;2022-12-01T16:46:44;9.80;;;6.43;;
30539;SDS011;17321;46.312;4.776;2022-12-01T16:49:10;9.43;;;6.03;;
30539;SDS011;17321;46.312;4.776;2022-12-01T16:51:36;7.90;;;6.32;;
30539;SDS011;17321;46.312;4.776;2022-12-01T16:54:02;9.30;;;6.90;;
30539;SDS011;17321;46.312;4.776;2022-12-01T16:56:30;8.52;;;6.80;;
30539;SDS011;17321;46.312;4.776;2022-12-01T16:58:57;10.25;;;7.25;;
30539;SDS011;17321;46.312;4.776;2022-12-01T17:01:25;13.63;;;8.13;;
30539;SDS011;17321;46.312;4.776;2022-12-01T17:03:51;9.43;;;6.80;;
30539;SDS011;17321;46.312;4.776;2022-12-01T17:06:17;11.98;;;9.38;;
30539;SDS011;17321;46.312;4.776;2022-12-01T17:08:44;12.98;;;7.82;;
30539;SDS011;17321;46.312;4.776;2022-12-01T17:11:10;12.25;;;8.30;;
30539;SDS011;17321;46.312;4.776;2022-12-01T17:13:36;29.02;;;16.42;;